** WELKOM OP ONZE WEBSITE MET ACTUELE WEERDATA VANUIT IZEGEM **
Het weer levert geen direct gevaar op.    Er zijn geen waarschuwingen afgegeven.

Weercam te Izegem Meer informatie Weercam te Izegem


Lokaal brand risico:
FWI


Regionaal brand risico: Meer informatie


Steun ons initiatief via een kleine donatie!



METAR rapporten vliegvelden

   
EBOS - Oostende Airport, Belgium
Afstand tot: NW 39 km
Gewijzigd: 21-01-2020 12:50
Mist, Grotendeels bewolkt  
Mist, Grotendeels bewolkt  
   Wind: Zuiden 11.1 km/h
Wind: Zuiden 11.1 km/h
Temperatuur: 1°C
Voelt als: -2°C
Dauwpunt: 0°C
Vochtigheid: 93%
Barometer: 1042 hPa
Bewolking: Mostly Cloudy
Zicht: 0 km
Bewolking: Grotendeels bewolkt 100 ft
EBOS 211150Z 18006KT 150V210 0200 R08/0325N R26/0325N FG BKN001 01/00 Q1042 BECMG 0500 FG BKN002
LFQQ - Lille/Lesquin, France
Afstand tot: Z 40 km
Gewijzigd: 21-01-2020 13:00
  
  
   Wind: varieert 3.7 km/h
Wind: varieert 3.7 km/h
Zicht: 1 km
LFQQ 211200Z AUTO VRB02KT 1100 0500 R26/1300U R08/0750N BCFG VV/// 01/01 Q1042 BECMG 8000 NSW NSC
EBFN - Koksijde (bel-Af, Belgium
Afstand tot: WNW 43 km
Gewijzigd: 21-01-2020 12:55
Mist, Bewolking  
Mist, Bewolking  
   Wind: ZZW 11.1 km/h
Wind: ZZW 11.1 km/h
Temperatuur: 1°C
Voelt als: -2°C
Dauwpunt: 1°C
Vochtigheid: 100%
Barometer: 1042 hPa
Bewolking: Overcast
Zicht: 0 km
Bewolking: Bewolking 200 ft
EBFN 211155Z 20006KT 0250 FG OVC002 01/01 Q1042 RED RED
EBCV - Chievres Ab, Belgium
Afstand tot: ZO 59 km
Gewijzigd: 21-01-2020 12:55
Mist  
Mist  
   Wind: varieert 3.7 km/h
Wind: varieert 3.7 km/h
Temperatuur: -1°C
Dauwpunt: -1°C
Vochtigheid: 100%
Barometer: 1043 hPa
Zicht: 0 km
EBCV 211155Z AUTO VRB02KT 0100 FG /// M01/M01 Q1043 RED
EHFS - Vlissingen, Netherlands
Afstand tot: NNO 65 km
Gewijzigd: 21-01-2020 12:55
Mist, Bewolking  
Mist, Bewolking  
   Wind: ZW 9.3 km/h
Wind: ZW 9.3 km/h
Temperatuur: 2°C
Voelt als: -1°C
Dauwpunt: 2°C
Vochtigheid: 100%
Barometer: 1042 hPa
Bewolking: Overcast
Zicht: 0 km
Bewolking: Bewolking 0 ft
EHFS 211155Z AUTO 22005KT 180V260 0200 FG VV000 02/02 Q1042
EBBR - Brussels Nationa, Belgium
Afstand tot: O 91 km
Gewijzigd: 21-01-2020 12:50
Freezing, Mist, Grotendeels bewolkt  
Freezing, Mist, Grotendeels bewolkt  
   Wind: Kalm
Wind: Kalm
Temperatuur: -1°C
Dauwpunt: -1°C
Vochtigheid: 100%
Barometer: 1042 hPa
Bewolking: Mostly Cloudy
Zicht: 0 km
Bewolking: Grotendeels bewolkt 100 ft
EBBR 211150Z 00000KT 0300 R25L/0400N R25R/0450N R01/0350N FZFG BKN001 M01/M01 Q1042 TEMPO 1500 BR BKN003
EBAW - Antwerp/Deurne, Belgium
Afstand tot: ONO 94 km
Gewijzigd: 21-01-2020 12:50
Nevel, Grotendeels bewolkt  
Nevel, Grotendeels bewolkt  
   Wind: Zuiden 5.6 km/h
Wind: Zuiden 5.6 km/h
Temperatuur: 1°C
Voelt als: -1°C
Dauwpunt: 0°C
Vochtigheid: 93%
Barometer: 1042 hPa
Bewolking: Mostly Cloudy
Zicht: 4 km
Bewolking: Grotendeels bewolkt 300 ft
EBAW 211150Z 18003KT 130V220 4000 1900E BR BKN003 01/M00 Q1042 NOSIG
EHWO - Woensdrecht Rnla, Netherlands
Afstand tot: NO 98 km
Gewijzigd: 21-01-2020 12:55
Nevel, Bewolking  
Nevel, Bewolking  
   Wind: ZW 7.4 km/h
Wind: ZW 7.4 km/h
Temperatuur: 2°C
Voelt als: 0°C
Dauwpunt: 1°C
Vochtigheid: 93%
Barometer: 1042 hPa
Bewolking: Overcast
Zicht: 1 km
Bewolking: Bewolking 200 ft
EHWO 211155Z AUTO 23004KT 180V270 1400 BR OVC002 02/01 Q1042 AMB 22003KT 1500 BR OVC001 TEMPO 0600 FG OVC001
EBCI - Charleroi/Gossel, Belgium
Afstand tot: OZO 102 km
Gewijzigd: 21-01-2020 12:50
Helder  
Helder  
   Wind: varieert 1.9 km/h
Wind: varieert 1.9 km/h
Temperatuur: 4°C
Dauwpunt: -3°C
Vochtigheid: 61%
Barometer: 1042 hPa
Zicht: meer dan 10 km
Bewolking: Helder ft
EBCI 211150Z VRB01KT CAVOK 04/M03 Q1042 NOSIG

Script ontwikkeld door  Saratoga-weather.org Aangepast voor de template door  Weerstation Leuven